sensor_id;sensor_type;location;lat;lon;timestamp;P1;durP1;ratioP1;P2;durP2;ratioP2
6422;SDS011;3244;42.708;23.288;2023-05-07T00:01:15;11.70;;;8.88;;
6422;SDS011;3244;42.708;23.288;2023-05-07T00:03:43;10.57;;;8.07;;
6422;SDS011;3244;42.708;23.288;2023-05-07T00:06:10;12.05;;;7.72;;
6422;SDS011;3244;42.708;23.288;2023-05-07T00:08:37;8.77;;;6.50;;
6422;SDS011;3244;42.708;23.288;2023-05-07T00:11:04;7.45;;;6.90;;
6422;SDS011;3244;42.708;23.288;2023-05-07T00:13:31;6.50;;;5.90;;
6422;SDS011;3244;42.708;23.288;2023-05-07T00:16:00;6.75;;;6.13;;
6422;SDS011;3244;42.708;23.288;2023-05-07T00:18:27;6.90;;;6.20;;
6422;SDS011;3244;42.708;23.288;2023-05-07T00:20:55;6.80;;;6.30;;
6422;SDS011;3244;42.708;23.288;2023-05-07T00:23:22;7.00;;;6.32;;
6422;SDS011;3244;42.708;23.288;2023-05-07T00:25:49;7.43;;;6.72;;
6422;SDS011;3244;42.708;23.288;2023-05-07T00:28:16;6.88;;;6.28;;
6422;SDS011;3244;42.708;23.288;2023-05-07T00:30:42;7.00;;;6.50;;
6422;SDS011;3244;42.708;23.288;2023-05-07T00:33:09;9.48;;;7.20;;
6422;SDS011;3244;42.708;23.288;2023-05-07T00:35:36;7.72;;;7.05;;
6422;SDS011;3244;42.708;23.288;2023-05-07T00:38:04;7.68;;;6.95;;
6422;SDS011;3244;42.708;23.288;2023-05-07T00:40:30;9.50;;;7.55;;
6422;SDS011;3244;42.708;23.288;2023-05-07T00:42:57;11.18;;;7.50;;
6422;SDS011;3244;42.708;23.288;2023-05-07T00:45:25;7.55;;;6.85;;
6422;SDS011;3244;42.708;23.288;2023-05-07T00:47:53;6.93;;;6.32;;
6422;SDS011;3244;42.708;23.288;2023-05-07T00:50:20;7.50;;;6.80;;
6422;SDS011;3244;42.708;23.288;2023-05-07T00:52:47;8.43;;;7.72;;
6422;SDS011;3244;42.708;23.288;2023-05-07T00:55:15;12.52;;;7.38;;
6422;SDS011;3244;42.708;23.288;2023-05-07T00:57:42;7.85;;;7.18;;
6422;SDS011;3244;42.708;23.288;2023-05-07T01:00:10;9.45;;;7.35;;
6422;SDS011;3244;42.708;23.288;2023-05-07T01:02:38;8.55;;;7.70;;
6422;SDS011;3244;42.708;23.288;2023-05-07T01:05:05;10.68;;;8.00;;
6422;SDS011;3244;42.708;23.288;2023-05-07T01:07:34;9.13;;;7.88;;
6422;SDS011;3244;42.708;23.288;2023-05-07T01:10:03;10.80;;;7.90;;
6422;SDS011;3244;42.708;23.288;2023-05-07T01:12:32;9.65;;;7.43;;
6422;SDS011;3244;42.708;23.288;2023-05-07T01:14:59;13.18;;;7.43;;
6422;SDS011;3244;42.708;23.288;2023-05-07T01:17:26;11.48;;;7.70;;
6422;SDS011;3244;42.708;23.288;2023-05-07T01:19:53;8.63;;;7.10;;
6422;SDS011;3244;42.708;23.288;2023-05-07T01:22:27;8.82;;;7.95;;
6422;SDS011;3244;42.708;23.288;2023-05-07T01:24:57;13.13;;;7.80;;
6422;SDS011;3244;42.708;23.288;2023-05-07T01:27:24;7.82;;;7.10;;
6422;SDS011;3244;42.708;23.288;2023-05-07T01:29:51;8.90;;;7.85;;
6422;SDS011;3244;42.708;23.288;2023-05-07T01:32:19;13.10;;;7.53;;
6422;SDS011;3244;42.708;23.288;2023-05-07T01:34:50;10.32;;;8.88;;
6422;SDS011;3244;42.708;23.288;2023-05-07T01:37:19;11.23;;;8.98;;
6422;SDS011;3244;42.708;23.288;2023-05-07T01:39:48;20.50;;;8.35;;
6422;SDS011;3244;42.708;23.288;2023-05-07T01:42:15;10.10;;;9.00;;
6422;SDS011;3244;42.708;23.288;2023-05-07T01:44:41;10.18;;;8.07;;
6422;SDS011;3244;42.708;23.288;2023-05-07T01:47:08;9.35;;;8.45;;
6422;SDS011;3244;42.708;23.288;2023-05-07T01:49:35;9.82;;;7.85;;
6422;SDS011;3244;42.708;23.288;2023-05-07T01:52:03;8.35;;;7.57;;
6422;SDS011;3244;42.708;23.288;2023-05-07T01:54:30;12.48;;;7.85;;
6422;SDS011;3244;42.708;23.288;2023-05-07T01:56:58;11.48;;;8.65;;
6422;SDS011;3244;42.708;23.288;2023-05-07T01:59:25;8.63;;;7.82;;
6422;SDS011;3244;42.708;23.288;2023-05-07T02:01:51;8.48;;;7.63;;
6422;SDS011;3244;42.708;23.288;2023-05-07T02:04:18;10.90;;;8.10;;
6422;SDS011;3244;42.708;23.288;2023-05-07T02:06:45;12.27;;;7.75;;
6422;SDS011;3244;42.708;23.288;2023-05-07T02:09:11;9.48;;;8.30;;
6422;SDS011;3244;42.708;23.288;2023-05-07T02:11:40;10.10;;;7.65;;
6422;SDS011;3244;42.708;23.288;2023-05-07T02:14:08;9.40;;;8.60;;
6422;SDS011;3244;42.708;23.288;2023-05-07T02:16:35;10.43;;;8.05;;
6422;SDS011;3244;42.708;23.288;2023-05-07T02:19:01;10.13;;;9.23;;
6422;SDS011;3244;42.708;23.288;2023-05-07T02:21:28;9.75;;;8.90;;
6422;SDS011;3244;42.708;23.288;2023-05-07T02:23:55;10.25;;;9.27;;
6422;SDS011;3244;42.708;23.288;2023-05-07T02:26:21;13.38;;;9.88;;
6422;SDS011;3244;42.708;23.288;2023-05-07T02:28:48;8.98;;;8.10;;
6422;SDS011;3244;42.708;23.288;2023-05-07T02:31:17;9.02;;;8.23;;
6422;SDS011;3244;42.708;23.288;2023-05-07T02:33:43;8.68;;;7.88;;
6422;SDS011;3244;42.708;23.288;2023-05-07T02:36:10;10.82;;;8.27;;
6422;SDS011;3244;42.708;23.288;2023-05-07T02:38:38;11.95;;;9.00;;
6422;SDS011;3244;42.708;23.288;2023-05-07T02:41:05;9.68;;;8.27;;
6422;SDS011;3244;42.708;23.288;2023-05-07T02:43:32;9.00;;;8.13;;
6422;SDS011;3244;42.708;23.288;2023-05-07T02:46:02;11.73;;;8.60;;
6422;SDS011;3244;42.708;23.288;2023-05-07T02:48:31;15.13;;;9.60;;
6422;SDS011;3244;42.708;23.288;2023-05-07T02:50:58;9.38;;;8.18;;
6422;SDS011;3244;42.708;23.288;2023-05-07T02:53:25;10.50;;;8.88;;
6422;SDS011;3244;42.708;23.288;2023-05-07T02:55:52;9.52;;;8.23;;
6422;SDS011;3244;42.708;23.288;2023-05-07T02:58:19;10.13;;;8.15;;
6422;SDS011;3244;42.708;23.288;2023-05-07T03:00:46;10.90;;;8.88;;
6422;SDS011;3244;42.708;23.288;2023-05-07T03:03:12;16.20;;;9.95;;
6422;SDS011;3244;42.708;23.288;2023-05-07T03:05:41;9.95;;;8.98;;
6422;SDS011;3244;42.708;23.288;2023-05-07T03:08:07;10.73;;;9.10;;
6422;SDS011;3244;42.708;23.288;2023-05-07T03:10:35;9.13;;;8.27;;
6422;SDS011;3244;42.708;23.288;2023-05-07T03:13:01;10.27;;;8.77;;
6422;SDS011;3244;42.708;23.288;2023-05-07T03:15:28;15.82;;;8.80;;
6422;SDS011;3244;42.708;23.288;2023-05-07T03:17:55;10.60;;;9.35;;
6422;SDS011;3244;42.708;23.288;2023-05-07T03:20:22;12.27;;;8.95;;
6422;SDS011;3244;42.708;23.288;2023-05-07T03:22:50;10.23;;;9.20;;
6422;SDS011;3244;42.708;23.288;2023-05-07T03:25:17;9.15;;;7.93;;
6422;SDS011;3244;42.708;23.288;2023-05-07T03:27:43;10.43;;;8.38;;
6422;SDS011;3244;42.708;23.288;2023-05-07T03:30:11;8.57;;;7.78;;
6422;SDS011;3244;42.708;23.288;2023-05-07T03:32:38;11.85;;;7.90;;
6422;SDS011;3244;42.708;23.288;2023-05-07T03:35:05;9.85;;;7.82;;
6422;SDS011;3244;42.708;23.288;2023-05-07T03:37:32;7.63;;;7.03;;
6422;SDS011;3244;42.708;23.288;2023-05-07T03:40:00;8.98;;;7.55;;
6422;SDS011;3244;42.708;23.288;2023-05-07T03:42:28;7.70;;;7.10;;
6422;SDS011;3244;42.708;23.288;2023-05-07T03:44:55;10.57;;;7.65;;
6422;SDS011;3244;42.708;23.288;2023-05-07T03:47:21;8.18;;;7.40;;
6422;SDS011;3244;42.708;23.288;2023-05-07T03:49:48;7.18;;;6.63;;
6422;SDS011;3244;42.708;23.288;2023-05-07T03:52:15;8.45;;;7.82;;
6422;SDS011;3244;42.708;23.288;2023-05-07T03:54:47;8.07;;;7.28;;
6422;SDS011;3244;42.708;23.288;2023-05-07T03:57:15;8.20;;;7.40;;
6422;SDS011;3244;42.708;23.288;2023-05-07T03:59:42;7.35;;;6.72;;
6422;SDS011;3244;42.708;23.288;2023-05-07T04:02:09;14.90;;;7.43;;
6422;SDS011;3244;42.708;23.288;2023-05-07T04:04:35;10.90;;;7.38;;
6422;SDS011;3244;42.708;23.288;2023-05-07T04:07:02;10.57;;;7.70;;
6422;SDS011;3244;42.708;23.288;2023-05-07T04:09:29;9.45;;;7.03;;
6422;SDS011;3244;42.708;23.288;2023-05-07T04:11:56;6.68;;;6.07;;
6422;SDS011;3244;42.708;23.288;2023-05-07T04:14:24;7.07;;;6.47;;
6422;SDS011;3244;42.708;23.288;2023-05-07T04:16:50;7.18;;;5.90;;
6422;SDS011;3244;42.708;23.288;2023-05-07T04:19:17;7.10;;;6.45;;
6422;SDS011;3244;42.708;23.288;2023-05-07T04:21:44;9.93;;;6.13;;
6422;SDS011;3244;42.708;23.288;2023-05-07T04:24:11;6.57;;;6.10;;
6422;SDS011;3244;42.708;23.288;2023-05-07T04:26:37;9.38;;;6.93;;
6422;SDS011;3244;42.708;23.288;2023-05-07T04:29:05;7.00;;;6.28;;
6422;SDS011;3244;42.708;23.288;2023-05-07T04:31:33;6.95;;;6.05;;
6422;SDS011;3244;42.708;23.288;2023-05-07T04:34:00;10.40;;;6.78;;
6422;SDS011;3244;42.708;23.288;2023-05-07T04:36:26;7.43;;;6.30;;
6422;SDS011;3244;42.708;23.288;2023-05-07T04:38:54;7.45;;;6.85;;
6422;SDS011;3244;42.708;23.288;2023-05-07T04:41:21;7.50;;;6.80;;
6422;SDS011;3244;42.708;23.288;2023-05-07T04:43:47;8.45;;;6.18;;
6422;SDS011;3244;42.708;23.288;2023-05-07T04:46:14;7.75;;;7.03;;
6422;SDS011;3244;42.708;23.288;2023-05-07T04:48:42;7.75;;;6.00;;
6422;SDS011;3244;42.708;23.288;2023-05-07T04:51:09;8.77;;;7.28;;
6422;SDS011;3244;42.708;23.288;2023-05-07T04:53:36;7.95;;;7.15;;
6422;SDS011;3244;42.708;23.288;2023-05-07T04:56:03;7.78;;;6.97;;
6422;SDS011;3244;42.708;23.288;2023-05-07T04:58:30;10.35;;;7.70;;
6422;SDS011;3244;42.708;23.288;2023-05-07T05:00:57;9.48;;;6.45;;
6422;SDS011;3244;42.708;23.288;2023-05-07T05:03:24;7.78;;;6.72;;
6422;SDS011;3244;42.708;23.288;2023-05-07T05:05:52;8.70;;;7.82;;
6422;SDS011;3244;42.708;23.288;2023-05-07T05:08:19;8.23;;;7.43;;
6422;SDS011;3244;42.708;23.288;2023-05-07T05:10:45;9.88;;;7.60;;
6422;SDS011;3244;42.708;23.288;2023-05-07T05:13:13;8.68;;;7.97;;
6422;SDS011;3244;42.708;23.288;2023-05-07T05:15:40;7.70;;;6.88;;
6422;SDS011;3244;42.708;23.288;2023-05-07T05:18:07;7.57;;;7.07;;
6422;SDS011;3244;42.708;23.288;2023-05-07T05:20:33;7.95;;;7.32;;
6422;SDS011;3244;42.708;23.288;2023-05-07T05:23:01;9.32;;;8.27;;
6422;SDS011;3244;42.708;23.288;2023-05-07T05:25:28;10.98;;;9.98;;
6422;SDS011;3244;42.708;23.288;2023-05-07T05:27:55;9.48;;;8.70;;
6422;SDS011;3244;42.708;23.288;2023-05-07T05:30:22;11.20;;;8.50;;
6422;SDS011;3244;42.708;23.288;2023-05-07T05:32:49;9.65;;;8.82;;
6422;SDS011;3244;42.708;23.288;2023-05-07T05:35:15;14.10;;;10.07;;
6422;SDS011;3244;42.708;23.288;2023-05-07T05:37:42;12.07;;;10.75;;
6422;SDS011;3244;42.708;23.288;2023-05-07T05:40:11;10.00;;;9.10;;
6422;SDS011;3244;42.708;23.288;2023-05-07T05:42:38;11.90;;;9.88;;
6422;SDS011;3244;42.708;23.288;2023-05-07T05:45:05;11.52;;;9.35;;
6422;SDS011;3244;42.708;23.288;2023-05-07T05:47:33;14.88;;;9.18;;
6422;SDS011;3244;42.708;23.288;2023-05-07T05:49:59;8.88;;;8.02;;
6422;SDS011;3244;42.708;23.288;2023-05-07T05:52:26;10.95;;;7.93;;
6422;SDS011;3244;42.708;23.288;2023-05-07T05:54:53;9.35;;;8.65;;
6422;SDS011;3244;42.708;23.288;2023-05-07T05:57:21;9.10;;;8.02;;
6422;SDS011;3244;42.708;23.288;2023-05-07T05:59:48;8.27;;;7.50;;
6422;SDS011;3244;42.708;23.288;2023-05-07T06:02:14;8.38;;;7.28;;
6422;SDS011;3244;42.708;23.288;2023-05-07T06:04:41;9.63;;;7.82;;
6422;SDS011;3244;42.708;23.288;2023-05-07T06:07:08;7.85;;;7.30;;
6422;SDS011;3244;42.708;23.288;2023-05-07T06:09:35;8.40;;;7.63;;
6422;SDS011;3244;42.708;23.288;2023-05-07T06:12:01;10.52;;;8.32;;
6422;SDS011;3244;42.708;23.288;2023-05-07T06:14:30;9.77;;;8.95;;
6422;SDS011;3244;42.708;23.288;2023-05-07T06:16:56;8.70;;;7.95;;
6422;SDS011;3244;42.708;23.288;2023-05-07T06:19:23;8.93;;;8.20;;
6422;SDS011;3244;42.708;23.288;2023-05-07T06:21:51;8.30;;;7.70;;
6422;SDS011;3244;42.708;23.288;2023-05-07T06:24:18;9.52;;;8.65;;
6422;SDS011;3244;42.708;23.288;2023-05-07T06:26:45;8.65;;;8.00;;
6422;SDS011;3244;42.708;23.288;2023-05-07T06:29:11;8.73;;;8.23;;
6422;SDS011;3244;42.708;23.288;2023-05-07T06:31:39;8.60;;;7.65;;
6422;SDS011;3244;42.708;23.288;2023-05-07T06:34:06;9.20;;;8.60;;
6422;SDS011;3244;42.708;23.288;2023-05-07T06:36:33;8.10;;;7.50;;
6422;SDS011;3244;42.708;23.288;2023-05-07T06:39:00;8.55;;;7.85;;
6422;SDS011;3244;42.708;23.288;2023-05-07T06:41:27;9.18;;;8.25;;
6422;SDS011;3244;42.708;23.288;2023-05-07T06:43:54;7.95;;;7.40;;
6422;SDS011;3244;42.708;23.288;2023-05-07T06:46:20;9.05;;;8.35;;
6422;SDS011;3244;42.708;23.288;2023-05-07T06:48:48;9.23;;;8.40;;
6422;SDS011;3244;42.708;23.288;2023-05-07T06:51:15;10.48;;;9.55;;
6422;SDS011;3244;42.708;23.288;2023-05-07T06:53:41;8.52;;;7.93;;
6422;SDS011;3244;42.708;23.288;2023-05-07T06:56:08;8.98;;;8.23;;
6422;SDS011;3244;42.708;23.288;2023-05-07T06:58:35;9.13;;;8.38;;
6422;SDS011;3244;42.708;23.288;2023-05-07T07:01:02;8.45;;;7.85;;
6422;SDS011;3244;42.708;23.288;2023-05-07T07:03:29;7.50;;;7.00;;
6422;SDS011;3244;42.708;23.288;2023-05-07T07:05:57;8.45;;;7.75;;
6422;SDS011;3244;42.708;23.288;2023-05-07T07:08:24;8.68;;;7.88;;
6422;SDS011;3244;42.708;23.288;2023-05-07T07:10:51;9.23;;;8.63;;
6422;SDS011;3244;42.708;23.288;2023-05-07T07:13:17;10.50;;;9.65;;
6422;SDS011;3244;42.708;23.288;2023-05-07T07:15:44;8.93;;;8.23;;
6422;SDS011;3244;42.708;23.288;2023-05-07T07:18:11;10.50;;;9.50;;
6422;SDS011;3244;42.708;23.288;2023-05-07T07:20:38;13.93;;;12.63;;
6422;SDS011;3244;42.708;23.288;2023-05-07T07:23:06;9.50;;;8.88;;
6422;SDS011;3244;42.708;23.288;2023-05-07T07:25:32;8.98;;;8.27;;
6422;SDS011;3244;42.708;23.288;2023-05-07T07:27:59;12.43;;;11.35;;
6422;SDS011;3244;42.708;23.288;2023-05-07T07:30:26;11.95;;;9.30;;
6422;SDS011;3244;42.708;23.288;2023-05-07T07:32:53;9.60;;;8.77;;
6422;SDS011;3244;42.708;23.288;2023-05-07T07:35:20;8.60;;;7.85;;
6422;SDS011;3244;42.708;23.288;2023-05-07T07:37:46;8.38;;;7.68;;
6422;SDS011;3244;42.708;23.288;2023-05-07T07:40:16;8.68;;;7.90;;
6422;SDS011;3244;42.708;23.288;2023-05-07T07:42:43;8.85;;;8.05;;
6422;SDS011;3244;42.708;23.288;2023-05-07T07:45:09;9.13;;;7.90;;
6422;SDS011;3244;42.708;23.288;2023-05-07T07:47:36;9.48;;;7.88;;
6422;SDS011;3244;42.708;23.288;2023-05-07T07:50:03;8.15;;;7.03;;
6422;SDS011;3244;42.708;23.288;2023-05-07T07:52:31;9.85;;;6.90;;
6422;SDS011;3244;42.708;23.288;2023-05-07T07:54:57;8.38;;;7.68;;
6422;SDS011;3244;42.708;23.288;2023-05-07T07:57:25;8.60;;;7.53;;
6422;SDS011;3244;42.708;23.288;2023-05-07T07:59:52;8.40;;;7.85;;
6422;SDS011;3244;42.708;23.288;2023-05-07T08:02:19;9.60;;;7.50;;
6422;SDS011;3244;42.708;23.288;2023-05-07T08:04:45;18.70;;;17.00;;
6422;SDS011;3244;42.708;23.288;2023-05-07T08:07:12;17.15;;;15.32;;
6422;SDS011;3244;42.708;23.288;2023-05-07T08:09:39;7.47;;;6.90;;
6422;SDS011;3244;42.708;23.288;2023-05-07T08:12:06;8.77;;;7.88;;
6422;SDS011;3244;42.708;23.288;2023-05-07T08:14:35;7.75;;;7.28;;
6422;SDS011;3244;42.708;23.288;2023-05-07T08:17:02;10.25;;;7.20;;
6422;SDS011;3244;42.708;23.288;2023-05-07T08:19:29;7.30;;;6.70;;
6422;SDS011;3244;42.708;23.288;2023-05-07T08:21:55;7.50;;;6.93;;
6422;SDS011;3244;42.708;23.288;2023-05-07T08:24:22;11.10;;;6.72;;
6422;SDS011;3244;42.708;23.288;2023-05-07T08:26:49;6.75;;;6.35;;
6422;SDS011;3244;42.708;23.288;2023-05-07T08:29:15;6.65;;;6.15;;
6422;SDS011;3244;42.708;23.288;2023-05-07T08:31:43;6.05;;;5.55;;
6422;SDS011;3244;42.708;23.288;2023-05-07T08:34:10;5.95;;;5.50;;
6422;SDS011;3244;42.708;23.288;2023-05-07T08:36:37;5.65;;;5.18;;
6422;SDS011;3244;42.708;23.288;2023-05-07T08:39:03;5.25;;;4.95;;
6422;SDS011;3244;42.708;23.288;2023-05-07T08:41:30;6.32;;;5.85;;
6422;SDS011;3244;42.708;23.288;2023-05-07T08:43:57;7.13;;;6.63;;
6422;SDS011;3244;42.708;23.288;2023-05-07T08:46:25;5.38;;;4.88;;
6422;SDS011;3244;42.708;23.288;2023-05-07T08:48:58;7.30;;;4.88;;
6422;SDS011;3244;42.708;23.288;2023-05-07T08:51:25;5.20;;;4.90;;
6422;SDS011;3244;42.708;23.288;2023-05-07T08:53:52;4.68;;;4.18;;
6422;SDS011;3244;42.708;23.288;2023-05-07T08:56:18;5.07;;;4.68;;
6422;SDS011;3244;42.708;23.288;2023-05-07T08:58:46;6.22;;;5.43;;
6422;SDS011;3244;42.708;23.288;2023-05-07T09:01:14;4.45;;;4.20;;
6422;SDS011;3244;42.708;23.288;2023-05-07T09:03:41;6.10;;;5.78;;
6422;SDS011;3244;42.708;23.288;2023-05-07T09:06:12;5.43;;;5.13;;
6422;SDS011;3244;42.708;23.288;2023-05-07T09:08:38;9.07;;;5.57;;
6422;SDS011;3244;42.708;23.288;2023-05-07T09:11:05;5.30;;;4.78;;
6422;SDS011;3244;42.708;23.288;2023-05-07T09:13:32;6.50;;;4.72;;
6422;SDS011;3244;42.708;23.288;2023-05-07T09:15:59;5.47;;;5.07;;
6422;SDS011;3244;42.708;23.288;2023-05-07T09:18:39;4.63;;;4.32;;
6422;SDS011;3244;42.708;23.288;2023-05-07T09:21:09;6.35;;;5.75;;
6422;SDS011;3244;42.708;23.288;2023-05-07T09:23:37;6.00;;;5.35;;
6422;SDS011;3244;42.708;23.288;2023-05-07T09:26:04;4.68;;;4.20;;
6422;SDS011;3244;42.708;23.288;2023-05-07T09:28:34;4.32;;;3.92;;
6422;SDS011;3244;42.708;23.288;2023-05-07T09:31:03;4.72;;;4.32;;
6422;SDS011;3244;42.708;23.288;2023-05-07T09:33:30;5.35;;;4.20;;
6422;SDS011;3244;42.708;23.288;2023-05-07T09:35:57;4.80;;;4.25;;
6422;SDS011;3244;42.708;23.288;2023-05-07T09:38:24;4.10;;;3.80;;
6422;SDS011;3244;42.708;23.288;2023-05-07T09:41:02;6.80;;;3.90;;
6422;SDS011;3244;42.708;23.288;2023-05-07T09:43:31;3.58;;;3.38;;
6422;SDS011;3244;42.708;23.288;2023-05-07T09:46:00;6.55;;;4.03;;
6422;SDS011;3244;42.708;23.288;2023-05-07T09:48:29;5.85;;;4.18;;
6422;SDS011;3244;42.708;23.288;2023-05-07T09:50:56;5.70;;;4.22;;
6422;SDS011;3244;42.708;23.288;2023-05-07T09:53:28;4.22;;;3.85;;
6422;SDS011;3244;42.708;23.288;2023-05-07T09:55:57;3.65;;;3.13;;
6422;SDS011;3244;42.708;23.288;2023-05-07T09:58:26;5.78;;;3.75;;
6422;SDS011;3244;42.708;23.288;2023-05-07T10:00:54;7.43;;;4.22;;
6422;SDS011;3244;42.708;23.288;2023-05-07T10:03:23;3.45;;;3.15;;
6422;SDS011;3244;42.708;23.288;2023-05-07T10:05:53;3.80;;;3.47;;
6422;SDS011;3244;42.708;23.288;2023-05-07T10:08:21;6.82;;;6.22;;
6422;SDS011;3244;42.708;23.288;2023-05-07T10:10:47;8.77;;;7.45;;
6422;SDS011;3244;42.708;23.288;2023-05-07T10:13:15;24.00;;;20.02;;
6422;SDS011;3244;42.708;23.288;2023-05-07T10:15:44;7.85;;;6.28;;
6422;SDS011;3244;42.708;23.288;2023-05-07T10:18:11;5.20;;;4.80;;
6422;SDS011;3244;42.708;23.288;2023-05-07T10:20:39;4.10;;;3.78;;
6422;SDS011;3244;42.708;23.288;2023-05-07T10:23:08;3.90;;;3.70;;
6422;SDS011;3244;42.708;23.288;2023-05-07T10:25:40;7.72;;;2.78;;
6422;SDS011;3244;42.708;23.288;2023-05-07T10:28:08;4.00;;;3.20;;
6422;SDS011;3244;42.708;23.288;2023-05-07T10:30:38;3.95;;;3.15;;
6422;SDS011;3244;42.708;23.288;2023-05-07T10:33:16;3.03;;;2.67;;
6422;SDS011;3244;42.708;23.288;2023-05-07T10:35:49;3.47;;;3.28;;
6422;SDS011;3244;42.708;23.288;2023-05-07T10:38:16;3.25;;;3.05;;
6422;SDS011;3244;42.708;23.288;2023-05-07T10:40:44;4.88;;;4.10;;
6422;SDS011;3244;42.708;23.288;2023-05-07T10:43:11;7.15;;;4.82;;
6422;SDS011;3244;42.708;23.288;2023-05-07T10:45:37;7.13;;;3.80;;
6422;SDS011;3244;42.708;23.288;2023-05-07T10:48:08;6.32;;;5.82;;
6422;SDS011;3244;42.708;23.288;2023-05-07T10:50:37;4.25;;;3.95;;
6422;SDS011;3244;42.708;23.288;2023-05-07T10:53:24;5.18;;;4.03;;
6422;SDS011;3244;42.708;23.288;2023-05-07T11:02:06;5.15;;;4.82;;
6422;SDS011;3244;42.708;23.288;2023-05-07T11:04:34;4.03;;;3.67;;
6422;SDS011;3244;42.708;23.288;2023-05-07T11:07:15;4.30;;;3.88;;
6422;SDS011;3244;42.708;23.288;2023-05-07T11:09:57;3.03;;;2.70;;
6422;SDS011;3244;42.708;23.288;2023-05-07T11:12:48;5.88;;;3.63;;
6422;SDS011;3244;42.708;23.288;2023-05-07T11:18:07;3.90;;;3.60;;
6422;SDS011;3244;42.708;23.288;2023-05-07T11:20:46;4.70;;;4.40;;
6422;SDS011;3244;42.708;23.288;2023-05-07T11:26:24;7.93;;;2.90;;
6422;SDS011;3244;42.708;23.288;2023-05-07T11:28:51;3.30;;;3.10;;
6422;SDS011;3244;42.708;23.288;2023-05-07T11:31:22;6.03;;;4.13;;
6422;SDS011;3244;42.708;23.288;2023-05-07T11:33:51;4.32;;;3.47;;
6422;SDS011;3244;42.708;23.288;2023-05-07T11:36:18;3.08;;;2.83;;
6422;SDS011;3244;42.708;23.288;2023-05-07T11:38:46;5.50;;;4.45;;
6422;SDS011;3244;42.708;23.288;2023-05-07T11:41:15;5.57;;;5.10;;
6422;SDS011;3244;42.708;23.288;2023-05-07T11:43:56;4.18;;;3.88;;
6422;SDS011;3244;42.708;23.288;2023-05-07T11:46:23;4.10;;;3.60;;
6422;SDS011;3244;42.708;23.288;2023-05-07T11:48:50;4.95;;;4.65;;
6422;SDS011;3244;42.708;23.288;2023-05-07T11:51:20;4.07;;;3.72;;
6422;SDS011;3244;42.708;23.288;2023-05-07T11:53:48;3.70;;;3.35;;
6422;SDS011;3244;42.708;23.288;2023-05-07T11:56:17;3.58;;;3.30;;
6422;SDS011;3244;42.708;23.288;2023-05-07T11:58:45;3.47;;;2.65;;
6422;SDS011;3244;42.708;23.288;2023-05-07T12:01:13;3.47;;;3.20;;
6422;SDS011;3244;42.708;23.288;2023-05-07T12:03:41;4.13;;;3.83;;
6422;SDS011;3244;42.708;23.288;2023-05-07T12:06:10;3.08;;;2.88;;
6422;SDS011;3244;42.708;23.288;2023-05-07T12:08:37;2.92;;;2.80;;
6422;SDS011;3244;42.708;23.288;2023-05-07T12:11:06;2.63;;;2.45;;
6422;SDS011;3244;42.708;23.288;2023-05-07T12:13:36;3.00;;;2.80;;
6422;SDS011;3244;42.708;23.288;2023-05-07T12:16:03;2.63;;;2.53;;
6422;SDS011;3244;42.708;23.288;2023-05-07T12:18:31;3.05;;;2.60;;
6422;SDS011;3244;42.708;23.288;2023-05-07T12:21:00;3.70;;;3.40;;
6422;SDS011;3244;42.708;23.288;2023-05-07T12:23:26;3.95;;;3.03;;
6422;SDS011;3244;42.708;23.288;2023-05-07T12:25:54;3.40;;;3.10;;
6422;SDS011;3244;42.708;23.288;2023-05-07T12:28:20;4.97;;;3.20;;
6422;SDS011;3244;42.708;23.288;2023-05-07T12:30:49;3.45;;;2.83;;
6422;SDS011;3244;42.708;23.288;2023-05-07T12:33:16;2.60;;;2.50;;
6422;SDS011;3244;42.708;23.288;2023-05-07T12:35:44;4.15;;;3.85;;
6422;SDS011;3244;42.708;23.288;2023-05-07T12:38:11;3.85;;;2.50;;
6422;SDS011;3244;42.708;23.288;2023-05-07T12:40:39;3.85;;;2.45;;
6422;SDS011;3244;42.708;23.288;2023-05-07T12:43:08;2.50;;;2.40;;
6422;SDS011;3244;42.708;23.288;2023-05-07T12:45:41;3.42;;;3.22;;
6422;SDS011;3244;42.708;23.288;2023-05-07T12:48:10;3.30;;;3.10;;
6422;SDS011;3244;42.708;23.288;2023-05-07T12:50:37;4.88;;;4.55;;
6422;SDS011;3244;42.708;23.288;2023-05-07T12:53:05;3.35;;;2.72;;
6422;SDS011;3244;42.708;23.288;2023-05-07T12:55:34;3.30;;;3.10;;
6422;SDS011;3244;42.708;23.288;2023-05-07T12:58:07;3.47;;;2.95;;
6422;SDS011;3244;42.708;23.288;2023-05-07T13:00:34;3.70;;;3.40;;
6422;SDS011;3244;42.708;23.288;2023-05-07T13:03:02;3.30;;;3.00;;
6422;SDS011;3244;42.708;23.288;2023-05-07T13:05:30;3.50;;;3.15;;
6422;SDS011;3244;42.708;23.288;2023-05-07T13:07:57;3.47;;;3.28;;
6422;SDS011;3244;42.708;23.288;2023-05-07T13:10:24;3.42;;;2.95;;
6422;SDS011;3244;42.708;23.288;2023-05-07T13:12:51;3.28;;;3.05;;
6422;SDS011;3244;42.708;23.288;2023-05-07T13:15:18;6.47;;;4.47;;
6422;SDS011;3244;42.708;23.288;2023-05-07T13:17:45;5.00;;;4.25;;
6422;SDS011;3244;42.708;23.288;2023-05-07T13:20:11;2.92;;;2.75;;
6422;SDS011;3244;42.708;23.288;2023-05-07T13:22:40;3.42;;;3.15;;
6422;SDS011;3244;42.708;23.288;2023-05-07T13:25:07;3.85;;;3.58;;
6422;SDS011;3244;42.708;23.288;2023-05-07T13:27:34;3.25;;;3.00;;
6422;SDS011;3244;42.708;23.288;2023-05-07T13:30:02;3.17;;;2.88;;
6422;SDS011;3244;42.708;23.288;2023-05-07T13:32:29;6.72;;;2.65;;
6422;SDS011;3244;42.708;23.288;2023-05-07T13:34:56;3.60;;;3.30;;
6422;SDS011;3244;42.708;23.288;2023-05-07T13:37:23;3.20;;;2.88;;
6422;SDS011;3244;42.708;23.288;2023-05-07T13:39:51;2.90;;;2.70;;
6422;SDS011;3244;42.708;23.288;2023-05-07T13:42:18;2.80;;;2.65;;
6422;SDS011;3244;42.708;23.288;2023-05-07T13:44:44;2.63;;;2.42;;
6422;SDS011;3244;42.708;23.288;2023-05-07T13:47:11;4.70;;;4.25;;
6422;SDS011;3244;42.708;23.288;2023-05-07T13:49:38;4.80;;;4.15;;
6422;SDS011;3244;42.708;23.288;2023-05-07T13:52:04;3.83;;;3.38;;
6422;SDS011;3244;42.708;23.288;2023-05-07T13:54:31;3.83;;;2.75;;
6422;SDS011;3244;42.708;23.288;2023-05-07T13:56:59;2.60;;;2.40;;
6422;SDS011;3244;42.708;23.288;2023-05-07T13:59:26;3.78;;;3.42;;
6422;SDS011;3244;42.708;23.288;2023-05-07T14:01:53;2.90;;;2.70;;
6422;SDS011;3244;42.708;23.288;2023-05-07T14:04:20;2.65;;;2.55;;
6422;SDS011;3244;42.708;23.288;2023-05-07T14:06:47;3.75;;;3.42;;
6422;SDS011;3244;42.708;23.288;2023-05-07T14:09:14;2.70;;;2.60;;
6422;SDS011;3244;42.708;23.288;2023-05-07T14:11:41;3.85;;;2.95;;
6422;SDS011;3244;42.708;23.288;2023-05-07T14:14:09;2.97;;;2.78;;
6422;SDS011;3244;42.708;23.288;2023-05-07T14:16:36;3.05;;;2.72;;
6422;SDS011;3244;42.708;23.288;2023-05-07T14:19:03;3.53;;;3.33;;
6422;SDS011;3244;42.708;23.288;2023-05-07T14:21:30;3.80;;;3.60;;
6422;SDS011;3244;42.708;23.288;2023-05-07T14:23:57;3.78;;;3.47;;
6422;SDS011;3244;42.708;23.288;2023-05-07T14:26:25;2.90;;;2.70;;
6422;SDS011;3244;42.708;23.288;2023-05-07T14:28:52;2.72;;;2.42;;
6422;SDS011;3244;42.708;23.288;2023-05-07T14:31:21;3.50;;;3.03;;
6422;SDS011;3244;42.708;23.288;2023-05-07T14:33:48;4.03;;;3.70;;
6422;SDS011;3244;42.708;23.288;2023-05-07T14:36:15;2.78;;;2.60;;
6422;SDS011;3244;42.708;23.288;2023-05-07T14:38:42;3.78;;;2.72;;
6422;SDS011;3244;42.708;23.288;2023-05-07T14:41:09;3.65;;;3.30;;
6422;SDS011;3244;42.708;23.288;2023-05-07T14:43:35;3.33;;;3.13;;
6422;SDS011;3244;42.708;23.288;2023-05-07T14:46:02;2.63;;;2.50;;
6422;SDS011;3244;42.708;23.288;2023-05-07T14:48:30;4.00;;;2.63;;
6422;SDS011;3244;42.708;23.288;2023-05-07T14:50:56;4.70;;;2.83;;
6422;SDS011;3244;42.708;23.288;2023-05-07T14:53:23;4.65;;;2.88;;
6422;SDS011;3244;42.708;23.288;2023-05-07T14:55:50;3.92;;;2.70;;
6422;SDS011;3244;42.708;23.288;2023-05-07T14:58:16;3.10;;;2.80;;
6422;SDS011;3244;42.708;23.288;2023-05-07T15:00:43;3.83;;;3.53;;
6422;SDS011;3244;42.708;23.288;2023-05-07T15:03:10;4.45;;;4.15;;
6422;SDS011;3244;42.708;23.288;2023-05-07T15:05:39;4.28;;;3.15;;
6422;SDS011;3244;42.708;23.288;2023-05-07T15:08:06;4.03;;;3.38;;
6422;SDS011;3244;42.708;23.288;2023-05-07T15:10:34;3.47;;;3.03;;
6422;SDS011;3244;42.708;23.288;2023-05-07T15:13:06;4.68;;;4.00;;